Time;durP1;ratioP1;P1;durP2;ratioP2;P2;SDS_P1;SDS_P2;PMS_P1;PMS_P2;Temp;Humidity;BMP_temperature;BMP_pressure;BME280_temperature;BME280_humidity;BME280_pressure;Samples;Min_cycle;Max_cycle;Signal;HPM_P1;HPM_P2
2022/12/30 09:22:55;;;;;;;3.75;1.05;;;;;;;11.42;63.05;100220.31;2119313;27;20353;-68
2022/12/30 09:23:57;;;;;;;8.52;1.38;;;;;;;11.44;62.16;100217.31;2104941;28;20286;-67
2022/12/30 09:25:00;;;;;;;7.47;1.65;;;;;;;11.24;62.25;100216.50;2102186;28;20044;-70
2022/12/30 09:26:03;;;;;;;5.07;1.88;;;;;;;11.44;62.36;100222.69;2104532;28;20270;-68
2022/12/30 09:27:10;;;;;;;9.35;2.28;;;;;;;11.46;62.40;100224.00;2095318;28;20306;-67
2022/12/30 09:28:15;;;;;;;7.18;1.77;;;;;;;11.58;62.05;100210.88;2107402;28;20297;-68
2022/12/30 09:29:18;;;;;;;8.38;1.75;;;;;;;11.46;62.00;100225.91;2111537;28;20042;-68
2022/12/30 09:30:20;;;;;;;10.10;2.10;;;;;;;11.48;62.29;100223.72;2122305;27;20031;-70
2022/12/30 09:31:23;;;;;;;7.90;2.22;;;;;;;11.31;61.99;100224.22;2120025;27;20035;-67
2022/12/30 09:32:28;;;;;;;8.25;1.90;;;;;;;11.29;62.25;100221.84;2111007;28;20035;-67
2022/12/30 09:33:31;;;;;;;10.05;2.88;;;;;;;11.07;61.59;100216.22;2102822;28;20475;-68
2022/12/30 09:34:33;;;;;;;8.15;1.70;;;;;;;10.88;62.31;100235.81;2106536;28;20491;-69
2022/12/30 09:35:37;;;;;;;10.48;2.33;;;;;;;10.79;62.56;100232.19;2094733;28;20528;-69
2022/12/30 09:36:43;;;;;;;5.78;1.83;;;;;;;10.68;62.68;100230.69;2102456;28;20039;-69
2022/12/30 09:37:48;;;;;;;6.18;2.08;;;;;;;10.72;63.26;100237.09;2096752;27;20040;-68
2022/12/30 09:38:50;;;;;;;9.45;2.10;;;;;;;10.70;63.14;100228.53;2106724;28;20044;-67
2022/12/30 09:39:54;;;;;;;5.47;1.85;;;;;;;10.71;62.91;100237.38;2112825;27;20040;-69
2022/12/30 09:41:09;;;;;;;9.57;1.85;;;;;;;10.82;62.91;100234.28;2114980;28;20032;-69
2022/12/30 09:44:01;;;;;;;7.32;1.98;;;;;;;10.99;62.17;100239.19;2105206;28;20065;-69
2022/12/30 09:45:12;;;;;;;7.68;1.70;;;;;;;10.82;61.90;100247.75;2114152;28;20046;-68
2022/12/30 09:46:18;;;;;;;9.25;1.90;;;;;;;10.88;62.36;100238.53;2101356;28;20051;-69
2022/12/30 09:47:19;;;;;;;7.03;2.10;;;;;;;10.86;62.27;100243.38;2095404;28;20043;-70
2022/12/30 09:48:26;;;;;;;8.52;2.03;;;;;;;10.86;62.69;100245.28;2114424;27;20042;-68
2022/12/30 09:49:47;;;;;;;5.00;1.83;;;;;;;11.01;62.21;100236.22;2094260;28;20047;-68
2022/12/30 09:50:55;;;;;;;7.85;2.38;;;;;;;11.13;62.24;100242.78;2094435;28;20505;-69
2022/12/30 09:52:11;;;;;;;8.63;2.22;;;;;;;11.00;61.67;100248.03;2108184;27;20102;-69
2022/12/30 09:53:21;;;;;;;9.55;1.90;;;;;;;11.02;61.55;100240.50;2121605;27;20367;-69
2022/12/30 09:54:26;;;;;;;9.10;2.30;;;;;;;11.08;61.35;100239.34;2115037;28;20047;-70
2022/12/30 09:55:42;;;;;;;10.93;2.38;;;;;;;11.10;61.56;100247.94;2119083;28;20058;-69
2022/12/30 09:56:57;;;;;;;7.78;1.95;;;;;;;11.04;61.50;100249.09;2111491;28;20368;-72
2022/12/30 09:58:09;;;;;;;9.23;2.05;;;;;;;10.97;61.63;100232.47;2110115;27;20053;-69
2022/12/30 09:59:25;;;;;;;8.18;2.45;;;;;;;11.02;61.38;100251.25;2105340;28;20040;-68
2022/12/30 10:00:33;;;;;;;11.60;2.20;;;;;;;10.96;61.12;100242.44;2113566;27;20039;-68
2022/12/30 10:02:18;;;;;;;7.45;2.17;;;;;;;10.68;61.51;100249.50;2112211;28;20042;-68
2022/12/30 10:03:27;;;;;;;13.75;2.85;;;;;;;10.44;61.91;100253.00;2106495;28;20036;-68
2022/12/30 10:04:35;;;;;;;8.75;2.35;;;;;;;10.25;63.07;100257.47;2108624;28;20051;-68
2022/12/30 10:05:45;;;;;;;7.43;2.15;;;;;;;10.07;63.33;100240.16;2111117;28;20046;-68
2022/12/30 10:07:13;;;;;;;12.30;1.90;;;;;;;10.15;63.53;100242.25;2109718;28;20032;-68
2022/12/30 10:08:27;;;;;;;11.18;2.15;;;;;;;10.24;63.27;100246.97;2105187;28;20040;-68
2022/12/30 10:09:46;;;;;;;7.03;2.13;;;;;;;10.20;62.90;100244.06;2106591;28;20043;-68
2022/12/30 10:11:02;;;;;;;11.15;2.20;;;;;;;10.02;63.45;100231.34;2096642;28;20052;-68
2022/12/30 10:12:31;;;;;;;12.05;2.38;;;;;;;9.93;63.13;100240.03;2100735;28;20419;-68
2022/12/30 10:13:42;;;;;;;8.10;2.45;;;;;;;9.94;62.89;100248.88;2098253;28;20039;-68
2022/12/30 10:15:12;;;;;;;8.23;2.67;;;;;;;9.92;63.51;100246.47;2096121;28;20032;-68
2022/12/30 10:16:35;;;;;;;10.13;2.15;;;;;;;9.87;63.99;100243.84;2112392;27;20938;-68
2022/12/30 10:17:57;;;;;;;6.97;2.00;;;;;;;9.84;63.73;100236.34;2113830;28;20091;-69
2022/12/30 10:19:39;;;;;;;7.75;1.92;;;;;;;9.77;64.10;100226.97;2089364;28;20033;-68
2022/12/30 10:20:47;;;;;;;11.73;2.53;;;;;;;9.69;64.00;100237.25;2101206;28;20036;-68
2022/12/30 10:22:01;;;;;;;9.88;2.40;;;;;;;9.69;64.47;100239.94;2096287;28;20049;-69
2022/12/30 10:23:25;;;;;;;7.43;1.70;;;;;;;9.71;64.07;100243.16;2097601;28;20045;-68
2022/12/30 10:24:55;;;;;;;4.88;1.77;;;;;;;9.58;64.55;100234.91;2107295;28;20062;-68
2022/12/30 10:26:15;;;;;;;5.93;2.10;;;;;;;9.47;64.63;100243.03;2116795;27;20047;-68
2022/12/30 10:27:26;;;;;;;5.63;1.98;;;;;;;9.48;64.47;100244.63;2105454;28;20519;-68
2022/12/30 10:28:36;;;;;;;8.85;1.80;;;;;;;9.56;64.55;100247.81;2103736;28;20049;-68
2022/12/30 10:29:41;;;;;;;5.22;2.00;;;;;;;9.61;64.07;100253.94;2096844;28;20083;-68
2022/12/30 10:30:50;;;;;;;8.93;1.80;;;;;;;9.66;63.79;100247.75;2095376;28;20037;-68
2022/12/30 10:32:01;;;;;;;4.13;1.45;;;;;;;9.67;63.83;100252.03;2099152;28;20040;-68
2022/12/30 10:33:14;;;;;;;6.18;1.90;;;;;;;9.62;63.97;100262.81;2113484;27;20040;-68
2022/12/30 10:34:21;;;;;;;7.35;1.77;;;;;;;9.59;63.88;100258.00;2109966;28;20051;-68
2022/12/30 10:35:29;;;;;;;6.55;1.98;;;;;;;9.58;64.71;100259.06;2113763;28;20070;-68
2022/12/30 10:36:39;;;;;;;7.82;1.80;;;;;;;9.61;64.30;100256.63;2113335;28;20090;-68
2022/12/30 10:37:42;;;;;;;6.95;2.13;;;;;;;9.57;64.33;100252.91;2098518;28;20821;-68
2022/12/30 10:38:45;;;;;;;11.63;2.00;;;;;;;9.48;64.36;100262.63;2088993;28;20059;-68
2022/12/30 10:39:53;;;;;;;9.70;2.00;;;;;;;9.52;64.45;100267.16;2089373;28;20037;-69
2022/12/30 10:41:13;;;;;;;13.25;2.42;;;;;;;9.52;64.36;100274.44;2098476;28;20040;-68
2022/12/30 10:42:35;;;;;;;5.63;1.70;;;;;;;9.56;64.21;100264.72;2116777;27;20055;-68
2022/12/30 10:43:55;;;;;;;7.53;1.85;;;;;;;9.59;64.21;100271.44;2122326;27;20048;-68
2022/12/30 10:44:59;;;;;;;7.63;1.75;;;;;;;9.68;64.98;100275.13;2099156;28;20044;-68
2022/12/30 10:46:20;;;;;;;9.20;2.00;;;;;;;9.74;64.68;100276.66;2095028;28;20403;-68
2022/12/30 10:47:28;;;;;;;9.18;1.83;;;;;;;9.78;64.18;100269.69;2116316;27;20043;-68
2022/12/30 10:49:11;;;;;;;7.97;1.95;;;;;;;9.89;64.22;100276.56;2106887;28;20063;-68
2022/12/30 10:50:37;;;;;;;6.68;1.92;;;;;;;9.95;63.17;100271.94;2098029;28;20040;-68
2022/12/30 10:51:40;;;;;;;11.13;2.45;;;;;;;9.88;62.58;100274.97;2084200;28;20051;-68
2022/12/30 10:52:42;;;;;;;10.18;1.77;;;;;;;9.83;63.27;100274.19;2083483;28;20041;-68
2022/12/30 10:53:53;;;;;;;13.07;1.65;;;;;;;9.81;63.25;100277.16;2096835;28;20039;-68
2022/12/30 10:54:56;;;;;;;7.75;1.95;;;;;;;9.77;62.93;100275.31;2122476;27;20504;-69
2022/12/30 10:56:11;;;;;;;5.80;1.80;;;;;;;9.82;63.89;100276.09;2120389;27;20034;-70
2022/12/30 10:57:18;;;;;;;7.97;1.85;;;;;;;9.82;63.42;100277.97;2096455;28;20048;-68
2022/12/30 10:58:29;;;;;;;9.32;1.95;;;;;;;9.79;63.31;100271.28;2100475;27;20503;-70
2022/12/30 10:59:35;;;;;;;5.75;1.55;;;;;;;9.82;64.04;100277.97;2122070;27;20043;-69
2022/12/30 11:00:40;;;;;;;8.35;2.25;;;;;;;9.80;63.57;100278.22;2105535;28;20048;-69
2022/12/30 11:01:45;;;;;;;12.57;2.30;;;;;;;9.75;63.60;100278.28;2105789;27;20040;-69
2022/12/30 11:03:12;;;;;;;7.93;2.08;;;;;;;9.66;63.81;100275.38;2114469;27;20070;-69
2022/12/30 11:04:39;;;;;;;8.95;1.83;;;;;;;9.64;63.76;100272.16;2112204;28;20047;-69
2022/12/30 11:05:42;;;;;;;10.52;1.85;;;;;;;9.63;63.93;100281.31;2108872;28;20039;-72
2022/12/30 11:06:58;;;;;;;5.55;1.75;;;;;;;9.55;63.19;100267.69;2113148;28;20054;-67
2022/12/30 11:08:04;;;;;;;14.10;2.00;;;;;;;9.50;63.57;100279.25;2102272;28;20044;-69
2022/12/30 11:09:21;;;;;;;7.25;1.88;;;;;;;9.41;63.38;100268.31;2105050;28;20059;-71
2022/12/30 11:10:24;;;;;;;11.90;1.77;;;;;;;9.39;63.97;100275.81;2107635;28;20043;-68
2022/12/30 11:14:42;;;;;;;8.00;1.67;;;;;;;9.37;63.93;100272.63;2112863;28;20062;-69
2022/12/30 11:14:45;;;;;;;7.90;2.00;;;;;;;9.32;63.65;100294.09;2105783;28;20794;-70
2022/12/30 11:15:52;;;;;;;7.07;1.42;;;;;;;9.38;64.01;100276.09;2093041;28;20045;-70
2022/12/30 11:16:55;;;;;;;11.95;2.47;;;;;;;9.39;63.90;100286.56;2081861;28;20041;-70
2022/12/30 11:17:59;;;;;;;6.32;1.55;;;;;;;9.39;63.87;100283.88;2089300;28;20049;-69
2022/12/30 11:19:04;;;;;;;12.20;2.15;;;;;;;9.38;63.91;100276.09;2096793;28;20044;-70
2022/12/30 11:20:12;;;;;;;7.13;1.75;;;;;;;9.36;63.29;100291.66;2110530;27;20051;-68
2022/12/30 11:21:24;;;;;;;8.63;1.73;;;;;;;9.37;63.58;100294.09;2114615;27;20051;-71
2022/12/30 11:22:27;;;;;;;13.40;1.83;;;;;;;9.42;63.48;100291.38;2114629;27;20051;-71
2022/12/30 11:23:39;;;;;;;5.85;1.42;;;;;;;9.44;63.50;100304.53;2117868;27;20057;-68
2022/12/30 11:24:57;;;;;;;6.93;1.77;;;;;;;9.50;63.91;100288.09;2095552;28;20044;-68
2022/12/30 11:26:06;;;;;;;11.07;1.70;;;;;;;9.58;64.16;100310.06;2088109;28;20431;-71
2022/12/30 11:27:09;;;;;;;10.57;1.70;;;;;;;9.64;63.96;100303.59;2112252;27;20051;-70
2022/12/30 11:28:22;;;;;;;14.00;1.77;;;;;;;9.66;63.91;100307.59;2106621;28;20056;-69
2022/12/30 11:29:29;;;;;;;6.65;1.40;;;;;;;9.69;63.40;100306.25;2097985;28;20052;-68
2022/12/30 11:30:41;;;;;;;16.15;2.40;;;;;;;9.74;63.50;100314.25;2095251;28;20058;-69
2022/12/30 11:31:48;;;;;;;10.30;1.95;;;;;;;9.72;63.97;100311.06;2090806;28;20049;-71
2022/12/30 11:32:50;;;;;;;13.90;1.98;;;;;;;9.77;63.64;100315.59;2108747;27;20063;-71
2022/12/30 11:33:57;;;;;;;9.98;2.40;;;;;;;9.76;63.66;100317.47;2104899;28;20040;-72
2022/12/30 11:35:02;;;;;;;;;;;;;;;9.70;63.35;100313.22;2118195;27;20058;-72
2022/12/30 11:36:31;;;;;;;8.80;2.13;;;;;;;9.50;63.03;100325.69;2112402;28;19916;-72
2022/12/30 11:37:37;;;;;;;10.23;2.08;;;;;;;9.36;63.63;100319.28;2100734;28;20364;-72
2022/12/30 11:38:41;;;;;;;7.82;1.90;;;;;;;9.36;63.23;100318.50;2104502;28;20047;-71
2022/12/30 11:39:44;;;;;;;13.38;1.98;;;;;;;9.33;63.66;100319.06;2103230;28;20044;-72
2022/12/30 11:40:47;;;;;;;6.90;1.60;;;;;;;9.30;64.30;100331.16;2092754;28;20051;-71
2022/12/30 11:41:55;;;;;;;8.40;2.13;;;;;;;9.27;63.67;100331.72;2088019;28;20052;-72
2022/12/30 11:43:09;;;;;;;9.95;2.35;;;;;;;9.10;64.13;100325.88;2092975;28;20412;-73
2022/12/30 11:44:18;;;;;;;11.20;2.00;;;;;;;8.87;64.52;100333.44;2113231;28;20501;-72
2022/12/30 11:45:23;;;;;;;4.20;1.45;;;;;;;8.91;64.59;100333.69;2106954;28;20044;-71
2022/12/30 11:46:31;;;;;;;6.03;1.65;;;;;;;8.79;64.21;100334.00;2105080;27;20036;-73
2022/12/30 11:47:35;;;;;;;7.43;1.85;;;;;;;8.74;64.78;100340.19;2095973;28;20480;-73
2022/12/30 11:48:43;;;;;;;7.00;1.67;;;;;;;8.73;65.16;100343.13;2094661;28;20043;-73
2022/12/30 11:49:49;;;;;;;10.70;2.42;;;;;;;8.79;65.45;100350.88;2095116;28;20059;-71
2022/12/30 11:50:56;;;;;;;10.32;1.58;;;;;;;8.90;65.31;100349.00;2091145;28;20047;-71
2022/12/30 11:52:09;;;;;;;9.10;1.75;;;;;;;8.98;65.38;100348.41;2092820;28;20035;-71
2022/12/30 11:53:12;;;;;;;6.13;1.83;;;;;;;8.92;64.18;100351.38;2105815;28;20047;-71
2022/12/30 11:54:17;;;;;;;13.07;2.17;;;;;;;8.85;64.08;100343.63;2095591;28;20032;-70
2022/12/30 11:55:25;;;;;;;10.20;1.90;;;;;;;8.73;64.11;100359.19;2089459;28;20032;-72
2022/12/30 11:56:28;;;;;;;6.93;1.50;;;;;;;8.67;64.61;100354.91;2107174;27;20055;-72
2022/12/30 11:57:43;;;;;;;10.38;1.90;;;;;;;8.68;64.56;100345.81;2095897;28;20059;-71
2022/12/30 11:58:49;;;;;;;9.20;2.25;;;;;;;8.73;64.48;100353.84;2104742;28;20044;-71
2022/12/30 11:59:58;;;;;;;8.55;1.70;;;;;;;8.73;64.72;100353.84;2102092;28;20051;-71
2022/12/30 12:01:06;;;;;;;12.23;2.20;;;;;;;8.79;64.66;100363.47;2085835;28;20034;-72
2022/12/30 12:02:37;;;;;;;9.93;1.88;;;;;;;8.79;64.39;100369.63;2095090;28;20496;-72
2022/12/30 12:03:58;;;;;;;4.82;1.60;;;;;;;8.80;64.81;100370.47;2096220;28;20040;-72
2022/12/30 12:05:02;;;;;;;6.00;1.60;;;;;;;8.78;64.40;100378.75;2097803;28;20286;-72
2022/12/30 12:06:09;;;;;;;6.25;2.00;;;;;;;8.75;64.47;100367.78;2108921;28;20040;-72
2022/12/30 12:07:16;;;;;;;11.07;2.35;;;;;;;8.80;64.21;100365.09;2104525;28;20044;-72
2022/12/30 12:08:58;;;;;;;11.85;2.10;;;;;;;8.87;64.29;100365.63;2110154;27;20048;-72
2022/12/30 12:10:11;;;;;;;13.23;1.92;;;;;;;8.86;63.13;100355.16;2077348;28;20423;-72
2022/12/30 12:11:22;;;;;;;10.15;2.03;;;;;;;8.81;63.73;100361.34;2093703;28;20072;-72
2022/12/30 12:12:28;;;;;;;10.10;1.83;;;;;;;8.88;63.85;100369.91;2104224;27;20051;-72
2022/12/30 12:13:47;;;;;;;6.85;1.83;;;;;;;8.88;63.09;100369.09;2101005;28;20035;-72
2022/12/30 12:15:10;;;;;;;10.80;2.00;;;;;;;8.82;63.74;100373.66;2105518;28;20439;-71
2022/12/30 12:16:23;;;;;;;6.45;1.63;;;;;;;8.84;63.75;100365.38;2096238;28;20044;-71
2022/12/30 12:17:48;;;;;;;11.30;1.75;;;;;;;8.86;63.88;100369.38;2094572;28;20032;-71
2022/12/30 12:18:55;;;;;;;7.00;1.98;;;;;;;8.80;63.89;100375.84;2096458;28;20608;-70
2022/12/30 12:20:17;;;;;;;9.82;2.25;;;;;;;8.78;64.19;100375.28;2100035;28;20711;-69
2022/12/30 12:21:29;;;;;;;9.15;2.30;;;;;;;8.68;63.73;100388.72;2083674;28;20039;-71
2022/12/30 12:22:56;;;;;;;6.20;1.52;;;;;;;8.63;63.54;100377.97;2089319;27;20791;-72
2022/12/30 12:24:03;;;;;;;9.38;1.52;;;;;;;8.53;64.31;100379.59;2094806;28;20408;-73
2022/12/30 12:25:17;;;;;;;6.03;1.30;;;;;;;8.45;64.32;100385.50;2098603;28;20044;-70
2022/12/30 12:26:28;;;;;;;5.28;1.52;;;;;;;8.36;63.68;100387.09;2097842;28;20036;-71
2022/12/30 12:27:32;;;;;;;8.82;1.40;;;;;;;8.30;63.88;100380.13;2090125;28;20048;-71
2022/12/30 12:28:41;;;;;;;7.03;1.88;;;;;;;8.29;64.10;100386.53;2085251;28;20041;-70
2022/12/30 12:29:48;;;;;;;2.83;1.23;;;;;;;8.35;64.43;100385.47;2089544;28;20059;-72
2022/12/30 12:31:33;;;;;;;9.25;2.00;;;;;;;8.38;64.29;100390.31;2086299;28;20442;-72
2022/12/30 12:32:44;;;;;;;8.25;2.05;;;;;;;8.38;64.20;100389.47;2074965;28;20041;-71
2022/12/30 12:33:55;;;;;;;6.88;2.28;;;;;;;8.37;64.46;100383.31;2086342;28;20299;-71
2022/12/30 12:35:37;;;;;;;10.63;2.00;;;;;;;8.42;64.77;100391.41;2091354;28;20667;-71
2022/12/30 12:37:05;;;;;;;11.93;3.05;;;;;;;8.45;64.34;100398.91;2096621;28;20043;-71
2022/12/30 12:38:25;;;;;;;13.07;2.25;;;;;;;8.51;63.92;100399.69;2100821;28;20062;-71
2022/12/30 12:39:55;;;;;;;8.43;1.50;;;;;;;8.50;64.55;100403.44;2102330;28;20289;-72
2022/12/30 12:41:00;;;;;;;9.43;2.17;;;;;;;8.46;64.02;100397.81;2091060;28;20036;-71
2022/12/30 12:42:10;;;;;;;8.35;1.80;;;;;;;8.49;64.68;100404.53;2094455;28;20451;-71
2022/12/30 12:43:23;;;;;;;6.90;1.70;;;;;;;8.50;64.20;100412.28;2104376;28;20301;-71
2022/12/30 12:45:03;;;;;;;7.05;1.70;;;;;;;8.44;63.97;100394.59;2092662;28;20647;-71
2022/12/30 12:46:14;;;;;;;;;;;;;;;8.42;63.76;100395.94;2088290;28;20302;-72
2022/12/30 12:47:59;;;;;;;9.85;1.80;;;;;;;8.43;63.89;100408.28;2098231;28;19912;-72
2022/12/30 12:49:38;;;;;;;7.72;1.40;;;;;;;8.35;63.75;100404.22;2092759;28;20563;-72
2022/12/30 12:50:58;;;;;;;7.25;2.03;;;;;;;8.31;64.02;100397.78;2105993;28;20406;-73
2022/12/30 12:52:21;;;;;;;7.95;1.77;;;;;;;8.15;64.28;100420.28;2103122;28;20044;-72
2022/12/30 12:53:44;;;;;;;10.15;1.73;;;;;;;8.04;64.39;100408.72;2098818;28;20313;-72
2022/12/30 12:54:58;;;;;;;10.88;1.70;;;;;;;8.07;64.87;100406.34;2094793;28;20784;-73
2022/12/30 12:56:13;;;;;;;11.18;1.95;;;;;;;8.07;64.66;100418.91;2104672;28;20058;-73
2022/12/30 12:57:23;;;;;;;11.57;1.77;;;;;;;8.11;64.87;100418.13;2102652;28;20296;-72
2022/12/30 12:58:35;;;;;;;7.57;1.55;;;;;;;8.15;64.84;100413.03;2102569;28;20797;-72
2022/12/30 12:59:40;;;;;;;9.70;1.60;;;;;;;8.18;65.54;100414.38;2111361;28;20288;-71
2022/12/30 13:00:45;;;;;;;13.32;1.83;;;;;;;8.22;66.38;100420.81;2103636;28;20039;-71
2022/12/30 13:02:46;;;;;;;7.82;1.67;;;;;;;8.25;65.81;100421.06;2094970;28;20150;-72
2022/12/30 13:03:56;;;;;;;9.25;1.75;;;;;;;8.32;65.80;100410.94;2051423;28;20318;-72
2022/12/30 13:05:22;;;;;;;6.60;1.65;;;;;;;8.43;66.11;100429.72;2058595;28;20286;-73
2022/12/30 13:06:40;;;;;;;11.20;2.10;;;;;;;8.40;65.02;100430.25;2112221;28;20284;-73
2022/12/30 13:07:59;;;;;;;8.15;1.67;;;;;;;8.36;64.84;100430.75;2090317;28;21165;-73
2022/12/30 13:09:17;;;;;;;7.47;1.73;;;;;;;8.32;64.93;100428.84;2092701;28;20520;-73
2022/12/30 13:10:35;;;;;;;9.00;1.63;;;;;;;8.25;64.35;100439.03;2105703;28;20036;-73
2022/12/30 13:12:03;;;;;;;8.60;1.40;;;;;;;8.26;64.68;100435.28;2097773;28;20662;-72
2022/12/30 13:13:32;;;;;;;12.73;2.35;;;;;;;8.30;64.98;100441.72;2097398;28;20502;-72
2022/12/30 13:14:41;;;;;;;6.43;1.70;;;;;;;8.34;65.21;100442.78;2103549;28;20293;-74
2022/12/30 13:15:49;;;;;;;10.95;1.65;;;;;;;8.36;64.95;100448.69;2112913;28;20105;-76
2022/12/30 13:16:56;;;;;;;9.48;2.00;;;;;;;8.39;65.10;100445.53;2112184;28;20396;-72
2022/12/30 13:18:03;;;;;;;8.95;1.83;;;;;;;8.30;64.44;100445.22;2089482;28;20071;-73
2022/12/30 13:19:10;;;;;;;10.57;1.75;;;;;;;8.28;64.51;100452.69;2088082;28;20041;-71
2022/12/30 13:20:18;;;;;;;12.52;2.13;;;;;;;8.34;65.21;100464.22;2089076;28;20041;-73
2022/12/30 13:21:25;;;;;;;8.80;2.08;;;;;;;8.37;64.65;100463.69;2096582;28;20654;-73
2022/12/30 13:22:34;;;;;;;4.65;1.90;;;;;;;8.38;64.34;100464.50;2103895;28;20289;-73
2022/12/30 13:23:44;;;;;;;14.13;2.10;;;;;;;8.40;64.67;100475.78;2103875;28;20286;-73
2022/12/30 13:24:53;;;;;;;10.68;1.83;;;;;;;8.42;64.29;100474.47;2104707;28;20324;-73
2022/12/30 13:26:02;;;;;;;7.03;2.25;;;;;;;8.39;64.21;100474.19;2110429;28;20285;-73
2022/12/30 13:27:24;;;;;;;6.78;1.67;;;;;;;8.41;64.74;100475.50;2104056;28;20047;-73
2022/12/30 13:28:28;;;;;;;12.07;2.28;;;;;;;8.42;64.71;100473.63;2097747;28;20282;-73
2022/12/30 13:29:37;;;;;;;6.63;1.77;;;;;;;8.45;64.51;100473.09;2095933;28;20051;-76
2022/12/30 13:31:20;;;;;;;7.03;1.60;;;;;;;8.39;64.21;100477.66;2098890;28;20036;-71
2022/12/30 13:32:37;;;;;;;6.15;2.00;;;;;;;8.27;64.31;100479.75;2102053;28;20066;-72
2022/12/30 13:33:52;;;;;;;11.98;2.05;;;;;;;8.16;64.82;100478.13;2105654;28;20040;-70
2022/12/30 13:35:17;;;;;;;12.65;1.90;;;;;;;8.19;64.75;100472.22;2097446;28;20039;-69
2022/12/30 13:36:33;;;;;;;8.07;1.70;;;;;;;8.22;65.30;100482.41;2073514;28;20037;-66
2022/12/30 13:37:47;;;;;;;4.88;1.27;;;;;;;8.24;65.96;100480.28;2091026;28;20283;-66
2022/12/30 13:39:10;;;;;;;5.30;1.92;;;;;;;8.26;65.92;100478.13;2101682;28;20891;-68
2022/12/30 13:40:17;;;;;;;8.02;1.35;;;;;;;8.18;65.91;100478.66;2105922;28;20091;-68
2022/12/30 13:42:20;;;;;;;2.47;1.20;;;;;;;8.11;66.01;100484.28;2104270;28;20054;-68
2022/12/30 13:43:37;;;;;;;7.97;2.08;;;;;;;8.08;66.19;100482.91;2078083;28;20283;-68
2022/12/30 13:44:46;;;;;;;10.00;1.67;;;;;;;8.11;66.34;100486.94;2080007;28;20074;-68
2022/12/30 13:45:53;;;;;;;13.65;2.40;;;;;;;8.11;66.16;100482.41;2099592;28;20290;-69
2022/12/30 13:46:56;;;;;;;15.85;2.15;;;;;;;8.12;66.46;100484.00;2096137;28;20035;-69
2022/12/30 13:48:10;;;;;;;5.32;1.80;;;;;;;8.14;66.41;100483.75;2079183;28;20049;-68
2022/12/30 13:49:25;;;;;;;7.68;1.48;;;;;;;8.11;65.98;100485.06;2092065;28;20058;-74
2022/12/30 13:50:32;;;;;;;9.40;1.83;;;;;;;8.14;66.22;100478.38;2106059;28;20282;-68
2022/12/30 13:51:35;;;;;;;5.70;1.98;;;;;;;8.03;66.17;100480.22;2104480;28;20629;-69
2022/12/30 13:52:44;;;;;;;8.80;2.13;;;;;;;8.03;66.32;100480.22;2103442;28;20801;-69
2022/12/30 13:53:50;;;;;;;12.43;1.80;;;;;;;8.00;66.48;100474.59;2104301;28;20301;-70
2022/12/30 13:54:58;;;;;;;14.30;2.47;;;;;;;7.95;67.02;100478.06;2111274;28;20074;-70
2022/12/30 13:56:01;;;;;;;17.00;3.05;;;;;;;7.98;67.22;100485.56;2112149;28;20285;-68
2022/12/30 13:57:05;;;;;;;7.85;1.60;;;;;;;7.99;66.46;100487.16;2087385;28;20692;-68
2022/12/30 13:58:20;;;;;;;8.23;2.05;;;;;;;7.94;66.98;100489.81;2078478;28;20061;-68
2022/12/30 13:59:25;;;;;;;13.18;2.45;;;;;;;7.92;66.81;100494.66;2088435;28;20647;-69
2022/12/30 14:00:44;;;;;;;10.70;2.53;;;;;;;7.97;66.83;100491.97;2087247;28;20041;-67
2022/12/30 14:01:47;;;;;;;8.98;2.22;;;;;;;7.97;67.04;100493.84;2089018;28;20298;-68
2022/12/30 14:02:58;;;;;;;9.07;2.10;;;;;;;7.94;66.96;100497.84;2095702;28;20032;-68
2022/12/30 14:04:17;;;;;;;8.77;2.35;;;;;;;7.99;66.90;100492.53;2095424;28;20297;-68
2022/12/30 14:05:38;;;;;;;8.38;2.60;;;;;;;8.07;66.58;100492.03;2096837;28;20291;-67
2022/12/30 14:07:09;;;;;;;12.13;2.85;;;;;;;8.12;66.39;100489.34;2103098;28;20055;-67
2022/12/30 14:08:27;;;;;;;12.52;2.83;;;;;;;8.11;66.03;100493.09;2092642;28;20309;-68
2022/12/30 14:09:33;;;;;;;11.60;3.08;;;;;;;8.12;66.05;100496.59;2098337;28;20036;-68
2022/12/30 14:10:45;;;;;;;11.82;3.83;;;;;;;8.12;65.86;100493.91;2095611;28;20036;-68
2022/12/30 14:12:02;;;;;;;14.00;3.83;;;;;;;8.01;65.47;100509.16;2101263;28;20044;-69
2022/12/30 14:13:23;;;;;;;14.65;2.67;;;;;;;7.97;65.42;100512.59;2112494;28;20052;-68
2022/12/30 14:14:25;;;;;;;12.88;2.47;;;;;;;7.99;65.52;100505.91;2093197;28;20033;-69
2022/12/30 14:15:34;;;;;;;13.80;2.03;;;;;;;8.04;65.94;100511.31;2082125;28;20973;-70
2022/12/30 14:16:43;;;;;;;10.45;2.45;;;;;;;8.07;65.79;100518.81;2096406;28;20036;-69
2022/12/30 14:17:49;;;;;;;10.40;3.28;;;;;;;8.05;65.22;100506.75;2097341;28;20804;-69
2022/12/30 14:18:55;;;;;;;9.20;2.33;;;;;;;8.05;65.51;100510.22;2096455;28;20283;-68
2022/12/30 14:20:06;;;;;;;7.55;2.13;;;;;;;8.08;65.51;100508.91;2088701;28;20279;-68
2022/12/30 14:21:15;;;;;;;7.05;2.42;;;;;;;7.89;65.06;100511.22;2090344;28;20282;-69
2022/12/30 14:22:41;;;;;;;9.30;2.00;;;;;;;7.78;65.51;100518.41;2085912;28;20292;-66
2022/12/30 14:23:51;;;;;;;10.38;1.60;;;;;;;7.69;65.10;100519.97;2101923;28;20281;-66
2022/12/30 14:25:23;;;;;;;10.13;3.00;;;;;;;7.71;66.09;100514.34;2105553;28;20313;-68
2022/12/30 14:26:27;;;;;;;7.15;2.35;;;;;;;7.73;66.32;100530.97;2098550;28;20058;-68
2022/12/30 14:27:40;;;;;;;11.68;2.65;;;;;;;7.76;66.05;100523.22;2084557;28;20448;-67
2022/12/30 14:28:48;;;;;;;12.35;2.22;;;;;;;7.78;65.90;100525.63;2096091;28;20280;-67
2022/12/30 14:30:04;;;;;;;7.95;2.20;;;;;;;7.79;65.92;100528.06;2096230;28;20302;-68
2022/12/30 14:31:34;;;;;;;10.02;2.25;;;;;;;7.86;65.67;100527.81;2109351;28;20059;-68
2022/12/30 14:32:37;;;;;;;12.55;3.35;;;;;;;7.87;65.14;100532.09;2109083;28;20312;-68
2022/12/30 14:33:41;;;;;;;10.20;2.35;;;;;;;7.86;65.38;100525.94;2109947;28;20051;-69
2022/12/30 14:35:05;;;;;;;12.90;2.83;;;;;;;7.91;65.73;100530.50;2109536;28;20282;-68
2022/12/30 14:36:08;;;;;;;12.60;2.80;;;;;;;7.97;65.18;100539.38;2100398;28;20051;-67
2022/12/30 14:37:15;;;;;;;8.38;2.33;;;;;;;7.97;65.26;100528.66;2106134;28;20039;-67
2022/12/30 14:38:30;;;;;;;8.60;2.10;;;;;;;7.98;65.03;100531.09;2114645;28;20342;-67
2022/12/30 14:39:34;;;;;;;7.25;2.00;;;;;;;8.00;65.10;100536.97;2105867;28;20278;-69
2022/12/30 14:40:38;;;;;;;4.93;1.98;;;;;;;8.03;64.99;100533.78;2105949;28;20270;-67
2022/12/30 14:41:43;;;;;;;8.00;1.98;;;;;;;8.07;65.27;100534.03;2114124;28;20282;-68
2022/12/30 14:42:56;;;;;;;6.43;1.73;;;;;;;8.09;64.75;100532.72;2091665;28;20286;-68
2022/12/30 14:44:08;;;;;;;9.48;2.40;;;;;;;8.11;64.43;100530.59;2101094;28;20048;-68
2022/12/30 14:45:24;;;;;;;11.15;3.22;;;;;;;8.06;64.86;100522.53;2094082;28;20670;-67
2022/12/30 14:46:34;;;;;;;9.80;3.47;;;;;;;8.06;65.07;100527.88;2096822;28;20291;-67
2022/12/30 14:47:58;;;;;;;8.10;2.45;;;;;;;8.06;64.80;100522.53;2098516;28;20274;-68
2022/12/30 14:49:21;;;;;;;7.28;2.38;;;;;;;8.06;64.74;100522.53;2101285;28;20294;-68
2022/12/30 14:50:30;;;;;;;10.65;2.55;;;;;;;8.09;64.44;100535.41;2091920;28;20044;-68
2022/12/30 14:51:35;;;;;;;8.85;2.80;;;;;;;8.12;64.67;100542.91;2091065;28;20279;-67
2022/12/30 14:53:04;;;;;;;10.75;2.53;;;;;;;8.16;64.36;100542.38;2099236;28;20044;-67
2022/12/30 14:54:17;;;;;;;13.18;3.00;;;;;;;8.14;63.97;100539.97;2101004;28;20290;-67
2022/12/30 14:55:25;;;;;;;8.75;2.78;;;;;;;8.13;64.57;100544.53;2097302;28;20291;-68
2022/12/30 14:56:28;;;;;;;8.68;2.90;;;;;;;8.16;64.06;100539.72;2092881;28;20287;-68
2022/12/30 14:57:33;;;;;;;12.98;2.83;;;;;;;8.17;64.53;100549.38;2076666;28;20441;-68
2022/12/30 14:58:37;;;;;;;10.95;2.70;;;;;;;8.20;64.32;100554.22;2085951;28;20047;-68
2022/12/30 15:00:12;;;;;;;8.65;2.47;;;;;;;8.18;64.55;100548.28;2096650;28;20033;-67
2022/12/30 15:01:20;;;;;;;10.95;2.22;;;;;;;8.19;64.64;100552.56;2093583;28;20368;-68
2022/12/30 15:02:33;;;;;;;14.13;2.25;;;;;;;8.19;64.32;100552.56;2096226;28;20060;-67
2022/12/30 15:03:38;;;;;;;8.27;3.25;;;;;;;8.18;64.11;100550.97;2104530;28;20028;-69
2022/12/30 15:04:40;;;;;;;14.15;3.53;;;;;;;8.17;64.46;100557.41;2104521;28;20289;-66
2022/12/30 15:05:53;;;;;;;9.52;2.80;;;;;;;8.16;64.40;100561.13;2096869;28;20282;-66
2022/12/30 15:06:56;;;;;;;11.50;2.45;;;;;;;8.15;64.78;100551.50;2096611;28;20674;-67